createdAt,value
2023-01-21T00:00:57.602Z,97441.56
2023-01-21T00:03:24.957Z,97437.12
2023-01-21T00:05:52.119Z,97434.50
2023-01-21T00:08:19.076Z,97443.94
2023-01-21T00:10:46.045Z,97443.47
2023-01-21T00:13:12.968Z,97448.84
2023-01-21T00:15:39.920Z,97433.25
2023-01-21T00:18:07.309Z,97433.22
2023-01-21T00:20:34.223Z,97433.97
2023-01-21T00:23:00.941Z,97424.94
2023-01-21T00:25:28.247Z,97426.13
2023-01-21T00:27:55.478Z,97423.88
2023-01-21T00:30:22.388Z,97419.09
2023-01-21T00:32:49.037Z,97409.19
2023-01-21T00:35:16.258Z,97401.59
2023-01-21T00:37:43.141Z,97411.75
2023-01-21T00:40:10.169Z,97407.78
2023-01-21T00:42:37.062Z,97405.84
2023-01-21T00:45:04.258Z,97398.56
2023-01-21T00:47:31.159Z,97400.47
2023-01-21T00:49:57.830Z,97401.37
2023-01-21T00:52:24.747Z,97403.31
2023-01-21T00:54:51.413Z,97411.34
2023-01-21T00:57:18.293Z,97399.59
2023-01-21T00:59:45.501Z,97420.66
2023-01-21T01:02:12.203Z,97420.13
2023-01-21T01:04:39.195Z,97389.34
2023-01-21T01:07:06.471Z,97422.47
2023-01-21T01:09:33.375Z,97401.72
2023-01-21T01:12:00.054Z,97406.97
2023-01-21T01:14:27.028Z,97410.00
2023-01-21T01:16:53.918Z,97401.84
2023-01-21T01:19:20.711Z,97405.44
2023-01-21T01:21:47.648Z,97409.50
2023-01-21T01:24:14.554Z,97400.56
2023-01-21T01:26:42.339Z,97410.88
2023-01-21T01:29:12.110Z,97405.41
2023-01-21T01:31:39.049Z,97392.41
2023-01-21T01:34:06.201Z,97378.19
2023-01-21T01:36:32.926Z,97379.87
2023-01-21T01:38:59.843Z,97389.69
2023-01-21T01:41:30.145Z,97401.25
2023-01-21T01:44:00.999Z,97394.87
2023-01-21T01:46:30.424Z,97386.66
2023-01-21T01:49:14.147Z,97387.84
2023-01-21T01:51:50.179Z,97390.03
2023-01-21T01:54:24.015Z,97376.44
2023-01-21T01:56:53.385Z,97388.09
2023-01-21T01:59:20.501Z,97406.91
2023-01-21T02:01:47.397Z,97407.22
2023-01-21T02:04:14.926Z,97402.75
2023-01-21T02:06:43.201Z,97401.66
2023-01-21T02:09:10.090Z,97406.53
2023-01-21T02:11:36.785Z,97408.75
2023-01-21T02:14:04.189Z,97388.38
2023-01-21T02:16:42.025Z,97385.94
2023-01-21T02:19:30.560Z,97401.75
2023-01-21T02:22:00.441Z,97396.25
2023-01-21T02:25:09.262Z,97380.66
2023-01-21T02:27:41.909Z,97398.81
2023-01-21T02:30:32.001Z,97391.47
2023-01-21T02:33:17.630Z,97385.56
2023-01-21T02:35:51.813Z,97383.31
2023-01-21T02:38:27.850Z,97383.12
2023-01-21T02:41:06.635Z,97371.09
2023-01-21T02:43:43.845Z,97380.59
2023-01-21T02:46:19.150Z,97369.78
2023-01-21T02:48:55.763Z,97368.94
2023-01-21T02:51:23.665Z,97372.28
2023-01-21T02:53:50.585Z,97372.37
2023-01-21T02:56:23.571Z,97381.91
2023-01-21T02:58:57.580Z,97375.12
2023-01-21T03:01:51.408Z,97375.97
2023-01-21T03:04:44.111Z,97366.13
2023-01-21T03:07:26.835Z,97370.87
2023-01-21T03:09:57.408Z,97373.03
2023-01-21T03:12:41.126Z,97376.56
2023-01-21T03:15:35.181Z,97383.38
2023-01-21T03:18:12.394Z,97380.28
2023-01-21T03:20:44.206Z,97400.44
2023-01-21T03:23:14.784Z,97406.72
2023-01-21T03:25:41.900Z,97396.38
2023-01-21T03:28:13.084Z,97404.47
2023-01-21T03:30:42.723Z,97399.00
2023-01-21T03:33:10.961Z,97420.66
2023-01-21T03:35:43.588Z,97434.59
2023-01-21T03:38:29.739Z,97437.94
2023-01-21T03:41:00.817Z,97443.53
2023-01-21T03:43:27.964Z,97457.28
2023-01-21T03:46:16.927Z,97454.38
2023-01-21T03:48:50.320Z,97449.78
2023-01-21T03:51:20.319Z,97446.56
2023-01-21T03:53:52.575Z,97450.16
2023-01-21T03:56:19.437Z,97451.84
2023-01-21T03:58:46.283Z,97455.34
2023-01-21T04:01:13.212Z,97457.06
2023-01-21T04:03:41.058Z,97445.38
2023-01-21T04:06:09.029Z,97443.22
2023-01-21T04:08:35.869Z,97443.62
2023-01-21T04:11:02.671Z,97446.09
2023-01-21T04:13:29.520Z,97451.69
2023-01-21T04:15:56.363Z,97453.22
2023-01-21T04:18:23.035Z,97449.75
2023-01-21T04:20:50.014Z,97444.88
2023-01-21T04:23:16.929Z,97445.41
2023-01-21T04:25:43.911Z,97448.00
2023-01-21T04:28:10.814Z,97455.53
2023-01-21T04:30:37.655Z,97460.69
2023-01-21T04:33:04.522Z,97470.94
2023-01-21T04:35:31.370Z,97468.47
2023-01-21T04:37:58.021Z,97482.59
2023-01-21T04:40:24.914Z,97470.63
2023-01-21T04:42:51.800Z,97461.56
2023-01-21T04:45:18.629Z,97455.19
2023-01-21T04:47:45.406Z,97439.97
2023-01-21T04:50:13.131Z,97433.06
2023-01-21T04:52:40.573Z,97440.25
2023-01-21T04:55:09.070Z,97437.31
2023-01-21T04:57:36.785Z,97437.75
2023-01-21T05:00:05.664Z,97446.00
2023-01-21T05:02:33.221Z,97444.22
2023-01-21T05:05:00.170Z,97440.56
2023-01-21T05:07:26.840Z,97447.53
2023-01-21T05:09:54.423Z,97450.84
2023-01-21T05:12:21.291Z,97447.50
2023-01-21T05:14:47.971Z,97456.06
2023-01-21T05:17:14.855Z,97456.13
2023-01-21T05:19:41.551Z,97452.00
2023-01-21T05:22:08.411Z,97440.97
2023-01-21T05:24:35.096Z,97445.63
2023-01-21T05:27:02.058Z,97455.84
2023-01-21T05:29:28.925Z,97470.22
2023-01-21T05:31:55.635Z,97478.31
2023-01-21T05:34:22.576Z,97474.19
2023-01-21T05:36:49.418Z,97473.84
2023-01-21T05:39:16.118Z,97472.97
2023-01-21T05:41:43.032Z,97476.66
2023-01-21T05:44:10.029Z,97493.81
2023-01-21T05:46:36.845Z,97502.06
2023-01-21T05:49:03.597Z,97500.78
2023-01-21T05:51:30.503Z,97508.91
2023-01-21T05:53:57.196Z,97510.50
2023-01-21T05:56:24.098Z,97513.94
2023-01-21T05:58:50.960Z,97530.09
2023-01-21T06:01:17.817Z,97524.44
2023-01-21T06:03:44.479Z,97524.37
2023-01-21T06:06:11.393Z,97534.28
2023-01-21T06:08:38.058Z,97529.88
2023-01-21T06:11:05.067Z,97519.28
2023-01-21T06:13:32.009Z,97525.31
2023-01-21T06:15:59.004Z,97507.63
2023-01-21T06:18:25.995Z,97524.00
2023-01-21T06:20:52.874Z,97533.41
2023-01-21T06:23:19.530Z,97534.91
2023-01-21T06:25:46.455Z,97534.31
2023-01-21T06:28:13.169Z,97512.09
2023-01-21T06:30:40.177Z,97522.31
2023-01-21T06:33:07.048Z,97525.66
2023-01-21T06:35:33.833Z,97533.69
2023-01-21T06:38:00.683Z,97528.88
2023-01-21T06:40:27.404Z,97538.19
2023-01-21T06:42:54.634Z,97543.81
2023-01-21T06:45:21.693Z,97553.28
2023-01-21T06:47:48.547Z,97554.47
2023-01-21T06:50:16.101Z,97564.00
2023-01-21T06:52:44.502Z,97558.66
2023-01-21T06:55:11.670Z,97558.94
2023-01-21T06:57:39.728Z,97564.28
2023-01-21T07:00:08.677Z,97569.66
2023-01-21T07:02:35.835Z,97572.69
2023-01-21T07:05:03.666Z,97560.16
2023-01-21T07:07:30.501Z,97574.63
2023-01-21T07:09:57.176Z,97587.63
2023-01-21T07:12:24.085Z,97589.66
2023-01-21T07:14:50.732Z,97596.97
2023-01-21T07:17:17.455Z,97599.16
2023-01-21T07:19:44.137Z,97599.69
2023-01-21T07:22:10.782Z,97596.59
2023-01-21T07:24:37.456Z,97606.84
2023-01-21T07:27:06.349Z,97603.62
2023-01-21T07:29:32.998Z,97611.75
2023-01-21T07:31:59.700Z,97624.81
2023-01-21T07:34:26.364Z,97628.47
2023-01-21T07:36:52.999Z,97628.50
2023-01-21T07:39:19.653Z,97627.34
2023-01-21T07:41:46.821Z,97610.09
2023-01-21T07:44:13.574Z,97622.56
2023-01-21T07:46:40.327Z,97618.88
2023-01-21T07:49:07.006Z,97619.31
2023-01-21T07:51:33.679Z,97623.63
2023-01-21T07:54:00.315Z,97621.53
2023-01-21T07:56:27.365Z,97615.59
2023-01-21T07:58:54.127Z,97624.38
2023-01-21T08:01:21.824Z,97622.87
2023-01-21T08:03:49.354Z,97634.12
2023-01-21T08:06:16.658Z,97624.00
2023-01-21T08:08:43.310Z,97638.34
2023-01-21T08:11:09.974Z,97630.94
2023-01-21T08:13:36.670Z,97631.78
2023-01-21T08:16:04.537Z,97632.50
2023-01-21T08:18:31.281Z,97641.75
2023-01-21T08:20:58.407Z,97645.91
2023-01-21T08:23:25.963Z,97635.94
2023-01-21T08:25:52.681Z,97645.09
2023-01-21T08:28:19.413Z,97631.63
2023-01-21T08:30:46.117Z,97639.47
2023-01-21T08:33:12.775Z,97647.97
2023-01-21T08:35:39.466Z,97640.44
2023-01-21T08:38:06.176Z,97647.09
2023-01-21T08:40:32.865Z,97625.72
2023-01-21T08:42:59.890Z,97650.81
2023-01-21T08:45:27.135Z,97655.72
2023-01-21T08:47:53.890Z,97646.87
2023-01-21T08:50:20.787Z,97653.41
2023-01-21T08:52:51.212Z,97660.66
2023-01-21T08:55:18.099Z,97650.22
2023-01-21T08:57:45.475Z,97654.47
2023-01-21T09:00:12.392Z,97661.41
2023-01-21T09:02:39.045Z,97666.75
2023-01-21T09:05:06.011Z,97679.16
2023-01-21T09:07:32.674Z,97669.13
2023-01-21T09:09:59.320Z,97656.53
2023-01-21T09:12:25.973Z,97656.03
2023-01-21T09:14:52.633Z,97667.34
2023-01-21T09:17:19.305Z,97669.81
2023-01-21T09:19:45.971Z,97669.19
2023-01-21T09:22:13.994Z,97672.47
2023-01-21T09:24:40.683Z,97663.44
2023-01-21T09:27:07.652Z,97662.81
2023-01-21T09:29:34.436Z,97654.63
2023-01-21T09:32:01.336Z,97659.41
2023-01-21T09:34:28.024Z,97665.00
2023-01-21T09:36:54.716Z,97673.53
2023-01-21T09:39:21.366Z,97658.28
2023-01-21T09:41:55.031Z,97668.22
2023-01-21T09:44:29.659Z,97648.97
2023-01-21T09:46:59.055Z,97651.44
2023-01-21T09:49:30.115Z,97654.28
2023-01-21T09:52:02.108Z,97647.13
2023-01-21T09:54:29.562Z,97655.09
2023-01-21T09:56:56.197Z,97658.53
2023-01-21T09:59:24.525Z,97653.16
2023-01-21T10:01:51.272Z,97659.44
2023-01-21T10:04:20.960Z,97661.13
2023-01-21T10:06:51.956Z,97649.59
2023-01-21T10:09:34.774Z,97659.06
2023-01-21T10:12:17.135Z,97667.59
2023-01-21T10:14:49.586Z,97658.47
2023-01-21T10:17:18.789Z,97660.41
2023-01-21T10:20:01.646Z,97669.22
2023-01-21T10:22:28.424Z,97662.56
2023-01-21T10:25:01.864Z,97666.81
2023-01-21T10:27:28.730Z,97668.47
2023-01-21T10:29:57.514Z,97665.22
2023-01-21T10:32:27.727Z,97653.22
2023-01-21T10:34:55.253Z,97660.87
2023-01-21T10:37:30.998Z,97664.19
2023-01-21T10:40:00.657Z,97662.00
2023-01-21T10:42:46.137Z,97658.81
2023-01-21T10:45:12.828Z,97663.22
2023-01-21T10:47:55.290Z,97668.91
2023-01-21T10:50:26.472Z,97665.22
2023-01-21T10:53:02.422Z,97662.78
2023-01-21T10:55:35.334Z,97662.94
2023-01-21T10:58:02.010Z,97661.16
2023-01-21T11:00:32.792Z,97665.12
2023-01-21T11:03:00.616Z,97663.81
2023-01-21T11:05:27.294Z,97675.75
2023-01-21T11:07:54.051Z,97668.22
2023-01-21T11:10:22.839Z,97668.78
2023-01-21T11:12:49.491Z,97674.88
2023-01-21T11:15:17.874Z,97673.41
2023-01-21T11:17:45.455Z,97670.56
2023-01-21T11:20:27.804Z,97674.09
2023-01-21T11:22:54.465Z,97675.19
2023-01-21T11:25:25.164Z,97684.47
2023-01-21T11:27:51.819Z,97684.91
2023-01-21T11:30:50.046Z,97678.94
2023-01-21T11:33:23.239Z,97674.03
2023-01-21T11:35:49.994Z,97681.47
2023-01-21T11:38:23.771Z,97680.34
2023-01-21T11:41:13.818Z,97678.22
2023-01-21T11:43:41.544Z,97679.97
2023-01-21T11:46:34.410Z,97681.81
2023-01-21T11:49:06.964Z,97686.69
2023-01-21T11:51:34.015Z,97680.75
2023-01-21T11:54:07.545Z,97686.81
2023-01-21T11:56:34.892Z,97700.44
2023-01-21T11:59:01.529Z,97693.97
2023-01-21T12:01:28.224Z,97697.66
2023-01-21T12:03:55.989Z,97696.19
2023-01-21T12:06:23.956Z,97697.28
2023-01-21T12:08:51.096Z,97695.38
2023-01-21T12:11:21.977Z,97701.97
2023-01-21T12:13:49.362Z,97701.53
2023-01-21T12:16:16.061Z,97715.63
2023-01-21T12:18:54.855Z,97707.09
2023-01-21T12:21:39.159Z,97715.53
2023-01-21T12:24:08.618Z,97711.25
2023-01-21T13:17:23.092Z,97743.47
2023-01-21T13:19:49.824Z,97749.69
2023-01-21T13:22:16.448Z,97760.69
2023-01-21T13:24:46.107Z,97760.09
2023-01-21T13:36:06.594Z,97770.81
2023-01-21T14:05:25.721Z,97785.59
2023-01-21T14:19:42.357Z,97797.13
2023-01-21T14:22:15.153Z,97805.03
2023-01-21T14:24:41.826Z,97801.91
2023-01-21T14:29:46.804Z,97808.41
2023-01-21T14:32:15.698Z,97797.47
2023-01-21T14:34:44.881Z,97799.84
2023-01-21T15:00:45.167Z,97809.03
2023-01-21T15:03:30.736Z,97828.19
2023-01-21T15:05:59.654Z,97822.38
2023-01-21T15:24:26.931Z,97831.88
2023-01-21T15:32:14.578Z,97833.22
2023-01-21T15:34:43.084Z,97835.44
2023-01-21T16:01:35.003Z,97871.91
2023-01-21T16:04:31.280Z,97879.63
2023-01-21T16:19:54.424Z,97888.13
2023-01-21T16:22:22.634Z,97893.81
2023-01-21T16:24:50.355Z,97902.22
2023-01-21T16:43:23.518Z,97912.91
2023-01-21T16:45:51.312Z,97911.31
2023-01-21T17:20:06.960Z,97938.66
2023-01-21T17:22:33.901Z,97944.09
2023-01-21T17:25:07.724Z,97952.06
2023-01-21T18:06:20.214Z,97974.91
2023-01-21T18:08:46.940Z,97972.56
2023-01-21T18:11:16.745Z,97983.13
2023-01-21T18:13:43.443Z,97987.59
2023-01-21T18:16:10.238Z,97987.47
2023-01-21T18:18:38.333Z,97986.66
2023-01-21T18:21:05.228Z,97997.06
2023-01-21T18:23:32.117Z,97986.19
2023-01-21T18:25:58.786Z,97988.25
2023-01-21T19:13:54.779Z,98008.97
2023-01-21T20:05:09.364Z,98048.00
2023-01-21T20:07:36.072Z,98040.88
2023-01-21T20:10:08.991Z,98039.19
2023-01-21T20:46:11.985Z,98057.84
2023-01-21T21:02:30.318Z,98057.25
2023-01-21T21:04:56.979Z,98049.09
2023-01-21T21:07:26.661Z,98056.19
2023-01-21T21:09:56.998Z,98066.22
2023-01-21T21:19:27.199Z,98067.06
2023-01-21T21:30:30.007Z,98071.16
2023-01-21T21:50:30.251Z,98082.13
2023-01-21T21:52:56.973Z,98077.75
2023-01-21T21:55:23.636Z,98069.53
2023-01-21T21:57:50.297Z,98069.62
2023-01-21T22:02:52.354Z,98067.25
2023-01-21T22:05:19.226Z,98076.16
2023-01-21T22:07:46.112Z,98077.53
2023-01-21T22:25:57.717Z,98066.44
2023-01-21T23:04:01.387Z,98070.50
2023-01-21T23:30:13.460Z,98088.59
